sensor_id;sensor_type;location;lat;lon;timestamp;temperature;humidity
10768;DHT22;5436;51.162;4.162;2022-08-04T01:38:21;22.30;99.90
10768;DHT22;5436;51.162;4.162;2022-08-04T03:53:02;21.20;99.90
10768;DHT22;5436;51.162;4.162;2022-08-04T05:12:19;21.20;99.90
10768;DHT22;5436;51.162;4.162;2022-08-04T07:31:59;23.70;99.90
10768;DHT22;5436;51.162;4.162;2022-08-04T08:45:04;22.60;99.90
10768;DHT22;5436;51.162;4.162;2022-08-04T08:50:31;22.10;99.90
10768;DHT22;5436;51.162;4.162;2022-08-04T09:02:58;22.10;99.90
10768;DHT22;5436;51.162;4.162;2022-08-04T09:30:44;22.00;99.90
10768;DHT22;5436;51.162;4.162;2022-08-04T09:58:16;23.10;99.90
10768;DHT22;5436;51.162;4.162;2022-08-04T10:00:52;23.20;99.90
10768;DHT22;5436;51.162;4.162;2022-08-04T10:03:25;23.30;99.90
10768;DHT22;5436;51.162;4.162;2022-08-04T10:16:15;24.60;99.90
10768;DHT22;5436;51.162;4.162;2022-08-04T10:21:25;25.90;99.90
10768;DHT22;5436;51.162;4.162;2022-08-04T10:24:10;26.60;99.90
10768;DHT22;5436;51.162;4.162;2022-08-04T10:26:48;26.70;99.90
10768;DHT22;5436;51.162;4.162;2022-08-04T10:29:25;27.00;99.90
10768;DHT22;5436;51.162;4.162;2022-08-04T10:34:28;28.00;99.90
10768;DHT22;5436;51.162;4.162;2022-08-04T10:39:39;29.10;99.90
10768;DHT22;5436;51.162;4.162;2022-08-04T10:45:07;29.20;99.90
10768;DHT22;5436;51.162;4.162;2022-08-04T10:47:53;29.30;99.90
10768;DHT22;5436;51.162;4.162;2022-08-04T10:50:33;29.20;99.90
10768;DHT22;5436;51.162;4.162;2022-08-04T10:53:13;29.70;99.90
10768;DHT22;5436;51.162;4.162;2022-08-04T10:55:49;30.10;99.90
10768;DHT22;5436;51.162;4.162;2022-08-04T11:00:59;30.30;99.90
10768;DHT22;5436;51.162;4.162;2022-08-04T11:06:02;28.30;99.90
10768;DHT22;5436;51.162;4.162;2022-08-04T11:08:36;28.40;99.90
10768;DHT22;5436;51.162;4.162;2022-08-04T11:11:15;28.90;99.90
10768;DHT22;5436;51.162;4.162;2022-08-04T11:13:48;29.30;99.90
10768;DHT22;5436;51.162;4.162;2022-08-04T11:16:26;29.20;99.90
10768;DHT22;5436;51.162;4.162;2022-08-04T11:19:07;29.20;99.90
10768;DHT22;5436;51.162;4.162;2022-08-04T11:21:52;29.60;99.90
10768;DHT22;5436;51.162;4.162;2022-08-04T11:24:27;29.80;99.90
10768;DHT22;5436;51.162;4.162;2022-08-04T11:27:04;29.30;99.90
10768;DHT22;5436;51.162;4.162;2022-08-04T11:29:40;29.70;99.90
10768;DHT22;5436;51.162;4.162;2022-08-04T11:34:41;30.20;99.90
10768;DHT22;5436;51.162;4.162;2022-08-04T11:39:44;30.30;99.90
10768;DHT22;5436;51.162;4.162;2022-08-04T11:42:20;30.20;99.90
10768;DHT22;5436;51.162;4.162;2022-08-04T11:44:59;30.50;99.90
10768;DHT22;5436;51.162;4.162;2022-08-04T11:47:33;30.50;99.90
10768;DHT22;5436;51.162;4.162;2022-08-04T12:07:54;30.80;99.90
10768;DHT22;5436;51.162;4.162;2022-08-04T12:22:57;31.30;99.90
10768;DHT22;5436;51.162;4.162;2022-08-04T12:43:11;30.90;99.90
10768;DHT22;5436;51.162;4.162;2022-08-04T13:12:55;32.30;99.90
10768;DHT22;5436;51.162;4.162;2022-08-04T13:15:26;32.30;99.90
10768;DHT22;5436;51.162;4.162;2022-08-04T13:18:02;32.00;99.90
10768;DHT22;5436;51.162;4.162;2022-08-04T13:20:37;31.70;99.90
10768;DHT22;5436;51.162;4.162;2022-08-04T13:23:11;31.10;99.90
10768;DHT22;5436;51.162;4.162;2022-08-04T13:25:44;31.30;99.90
10768;DHT22;5436;51.162;4.162;2022-08-04T13:28:26;31.00;99.90
10768;DHT22;5436;51.162;4.162;2022-08-04T13:30:59;31.50;99.90
10768;DHT22;5436;51.162;4.162;2022-08-04T13:33:30;31.70;99.90
10768;DHT22;5436;51.162;4.162;2022-08-04T13:36:00;31.60;99.90
10768;DHT22;5436;51.162;4.162;2022-08-04T13:38:32;31.40;99.90
10768;DHT22;5436;51.162;4.162;2022-08-04T13:41:05;31.50;99.90
10768;DHT22;5436;51.162;4.162;2022-08-04T13:43:44;31.50;99.90
10768;DHT22;5436;51.162;4.162;2022-08-04T13:46:16;31.30;99.90
10768;DHT22;5436;51.162;4.162;2022-08-04T13:48:47;31.00;99.90
10768;DHT22;5436;51.162;4.162;2022-08-04T13:51:18;30.40;99.90
10768;DHT22;5436;51.162;4.162;2022-08-04T13:53:54;30.10;99.90
10768;DHT22;5436;51.162;4.162;2022-08-04T13:56:28;29.70;99.90
10768;DHT22;5436;51.162;4.162;2022-08-04T13:59:03;29.50;99.90
10768;DHT22;5436;51.162;4.162;2022-08-04T14:01:34;29.30;99.90
10768;DHT22;5436;51.162;4.162;2022-08-04T14:04:12;29.00;99.90
10768;DHT22;5436;51.162;4.162;2022-08-04T14:06:49;28.70;99.90
10768;DHT22;5436;51.162;4.162;2022-08-04T14:09:21;28.60;99.90
10768;DHT22;5436;51.162;4.162;2022-08-04T14:11:54;28.80;99.90
10768;DHT22;5436;51.162;4.162;2022-08-04T14:14:28;29.10;99.90
10768;DHT22;5436;51.162;4.162;2022-08-04T14:17:00;29.00;99.90
10768;DHT22;5436;51.162;4.162;2022-08-04T14:19:48;29.00;99.90
10768;DHT22;5436;51.162;4.162;2022-08-04T14:22:40;28.80;99.90
10768;DHT22;5436;51.162;4.162;2022-08-04T14:25:16;29.00;99.90
10768;DHT22;5436;51.162;4.162;2022-08-04T14:27:47;29.00;99.90
10768;DHT22;5436;51.162;4.162;2022-08-04T14:30:39;28.90;99.90
10768;DHT22;5436;51.162;4.162;2022-08-04T15:26:00;27.50;99.90
10768;DHT22;5436;51.162;4.162;2022-08-04T15:28:32;27.50;99.90
10768;DHT22;5436;51.162;4.162;2022-08-04T15:31:04;27.40;99.90
10768;DHT22;5436;51.162;4.162;2022-08-04T15:33:34;27.50;99.90
10768;DHT22;5436;51.162;4.162;2022-08-04T15:36:14;27.60;99.90
10768;DHT22;5436;51.162;4.162;2022-08-04T15:38:50;27.40;99.90
10768;DHT22;5436;51.162;4.162;2022-08-04T16:21:26;26.70;99.90
10768;DHT22;5436;51.162;4.162;2022-08-04T16:23:58;26.70;99.90
